ADDS METAR Data INFO
IDs: Format: Raw Decoded Include TAF

Data at: 0321 UTC 19 Jul 2018

KMKO 190253Z AUTO 12004KT 10SM CLR 26/25 A2990 RMK AO2 SLP118 T02560250 53001
KMKO 190153Z AUTO 14004KT 10SM CLR 27/26 A2989 RMK AO2 SLP112 T02720256
KMKO 190053Z AUTO 15003KT 10SM CLR 29/26 A2990 RMK AO2 SLP115 T02890256
KMKO 182353Z AUTO 11005KT 10SM CLR 29/26 A2990 RMK AO2 SLP116 60000 T02890256 10300 20272 55012
KMKO 182253Z AUTO 13004KT 10SM CLR 29/26 A2990 RMK AO2 SLP115 T02940256
KMKO 182153Z AUTO 21004KT 10SM CLR 29/26 A2992 RMK AO2 SLP122 T02940256
KMKO 182053Z AUTO 18006KT 10SM FEW095 SCT120 28/25 A2994 RMK AO2 RAB13E34 SLP129 P0000 60000 T02830250 58009
KMKO 181953Z AUTO 13005KT 10SM FEW090 BKN120 28/25 A2994 RMK AO2 RAB1859E11B43E53 SLP132 P0000 T02780250
KMKO 181853Z AUTO 15007KT 10SM BKN110 28/24 A2997 RMK AO2 SLP139 T02780244
KMKO 181753Z AUTO 16007KT 10SM FEW110 28/24 A2996 RMK AO2 SLP138 60000 T02780244 10278 20233 58005
KMKO 181653Z AUTO 14006KT 10SM CLR 27/24 A2997 RMK AO2 RAE03 SLP140 P0000 T02720244
KMKO 181553Z AUTO 14007KT 10SM -RA FEW050 27/24 A2998 RMK AO2 RAE05B49 SLP142 P0000 T02670244
KMKO 181453Z AUTO 13009KT 10SM -RA FEW060 FEW095 BKN120 26/24 A2998 RMK AO2 RAE04B52 SLP144 P0000 60000 T02560239 50003
KMKO 181353Z AUTO 07004KT 10SM -RA FEW090 26/24 A2999 RMK AO2 RAB53 SLP147 P0000 T02560239
KMKO 181253Z AUTO 13005KT 10SM FEW120 25/24 A2997 RMK AO2 SLP141 T02500239
KMKO 181153Z AUTO 00000KT 10SM FEW120 24/23 A2997 RMK AO2 SLP140 T02390233 10250 20233 50002
KMKO 181053Z AUTO 32004KT 10SM CLR 24/23 A2997 RMK AO2 SLP141 T02390233
KMKO 180953Z AUTO 00000KT 10SM BKN110 24/23 A2996 RMK AO2 SLP137 T02390233
KMKO 180853Z AUTO 00000KT 10SM BKN110 24/23 A2996 RMK AO2 SLP137 T02390233 58009
KMKO 180753Z AUTO 14003KT 10SM CLR 24/23 A2997 RMK AO2 SLP140 T02440233
KMKO 180653Z AUTO 13004KT 10SM BKN100 24/23 A2999 RMK AO2 SLP147 T02440233
KMKO 180553Z AUTO 15006KT 10SM FEW100 25/23 A2999 RMK AO2 SLP146 60000 T02500228 10311 20250 403390239 50003
KMKO 180453Z AUTO 15005KT 10SM BKN100 OVC120 26/23 A2999 RMK AO2 RAB04E18 SLP148 P0000 T02560228
KMKO 180353Z AUTO 14005KT 10SM BKN100 26/22 A2999 RMK AO2 SLP148 T02610222
KMKO 180253Z AUTO 14007KT 10SM FEW110 27/23 A2998 RMK AO2 SLP144 T02670233 51009
KMKO 180153Z AUTO 11010KT 10SM CLR 28/22 A2998 RMK AO2 SLP143 T02830217
KMKO 180053Z AUTO 04004KT 10SM BKN110 30/24 A2997 RMK AO2 SLP138 T03000244
KMKO 172353Z AUTO 10011KT 10SM CLR 31/26 A2995 RMK AO2 SLP134 T03110256 10339 20311 56012
KMKO 172253Z AUTO 10006KT 10SM CLR 33/24 A2996 RMK AO2 SLP138 T03280244
KMKO 172153Z AUTO 00000KT 10SM CLR 32/24 A2998 RMK AO2 SLP142 T03220239
KMKO 172053Z AUTO VRB03KT 10SM CLR 32/24 A2999 RMK AO2 SLP147 T03220239 58010
KMKO 171953Z AUTO 27009KT 10SM CLR 34/24 A3002 RMK AO2 SLP157 T03390239
KMKO 171853Z AUTO 25010KT 10SM CLR 32/24 A3002 RMK AO2 SLP157 T03170244
KMKO 171753Z AUTO 18007KT 10SM CLR 33/25 A3002 RMK AO2 SLP157 T03330250 10333 20244 58007
KMKO 171653Z AUTO VRB05KT 10SM CLR 32/26 A3003 RMK AO2 SLP161 T03170256
KMKO 171553Z AUTO 13008KT 10SM CLR 29/25 A3004 RMK AO2 SLP164 T02940250